createdAt,value
2019-05-10T00:00:27.822Z,0.00
2019-05-10T00:01:27.811Z,0.00
2019-05-10T00:02:27.836Z,0.00
2019-05-10T00:03:27.871Z,0.00
2019-05-10T00:04:27.898Z,0.00
2019-05-10T00:05:27.927Z,0.00
2019-05-10T00:06:28.058Z,0.00
2019-05-10T00:07:28.390Z,0.00
2019-05-10T00:08:28.020Z,0.00
2019-05-10T00:09:28.046Z,0.00
2019-05-10T00:10:28.077Z,0.00
2019-05-10T00:11:28.109Z,0.00
2019-05-10T00:12:28.135Z,0.00
2019-05-10T00:13:28.164Z,0.00
2019-05-10T00:14:28.396Z,0.00
2019-05-10T00:15:28.429Z,0.00
2019-05-10T00:16:28.458Z,0.00
2019-05-10T00:17:28.261Z,0.00
2019-05-10T00:19:28.346Z,0.00
2019-05-10T00:21:28.401Z,0.00
2019-05-10T00:22:28.637Z,0.00
2019-05-10T00:23:28.663Z,0.00
2019-05-10T00:25:28.725Z,0.00
2019-05-10T00:26:28.551Z,0.00
2019-05-10T00:28:28.614Z,0.00
2019-05-10T00:29:28.946Z,0.00
2019-05-10T00:30:28.671Z,0.00
2019-05-10T00:31:28.700Z,0.00
2019-05-10T00:32:29.136Z,0.00
2019-05-10T00:33:28.767Z,0.00
2019-05-10T00:35:28.819Z,0.00
2019-05-10T00:37:29.084Z,0.00
2019-05-10T00:38:28.887Z,0.00
2019-05-10T00:39:28.953Z,0.00
2019-05-10T00:40:28.967Z,0.00
2019-05-10T00:41:29.404Z,0.00
2019-05-10T00:43:29.061Z,0.00
2019-05-10T00:44:29.089Z,0.00
2019-05-10T00:45:29.321Z,0.00
2019-05-10T00:46:29.348Z,0.00
2019-05-10T00:47:29.355Z,0.00
2019-05-10T00:48:29.212Z,0.00
2019-05-10T00:49:29.213Z,0.00
2019-05-10T00:50:29.242Z,0.00
2019-05-10T00:51:29.271Z,0.00
2019-05-10T00:52:29.302Z,0.00
2019-05-10T00:53:29.330Z,0.00
2019-05-10T00:54:29.360Z,0.00
2019-05-10T00:55:29.392Z,0.00
2019-05-10T00:56:29.422Z,0.00
2019-05-10T00:57:29.450Z,0.00
2019-05-10T00:58:29.480Z,0.00
2019-05-10T00:59:29.509Z,0.00
2019-05-10T01:00:29.539Z,0.00
2019-05-10T01:01:29.568Z,0.00
2019-05-10T01:02:29.599Z,0.00
2019-05-10T01:03:29.633Z,0.00
2019-05-10T01:04:29.657Z,0.00
2019-05-10T01:05:29.686Z,0.00
2019-05-10T01:06:29.716Z,0.00
2019-05-10T01:07:29.747Z,0.00
2019-05-10T01:08:29.780Z,0.00
2019-05-10T01:09:29.808Z,0.00
2019-05-10T01:10:29.837Z,0.00
2019-05-10T01:11:29.865Z,0.00
2019-05-10T01:12:29.894Z,0.00
2019-05-10T01:13:29.974Z,0.00
2019-05-10T01:14:29.953Z,0.00
2019-05-10T01:15:29.984Z,0.00
2019-05-10T01:16:30.014Z,0.00
2019-05-10T01:17:30.042Z,0.00
2019-05-10T01:18:30.071Z,0.00
2019-05-10T01:19:30.101Z,0.00
2019-05-10T01:20:30.132Z,0.00
2019-05-10T01:21:30.161Z,0.00
2019-05-10T01:22:30.192Z,0.00
2019-05-10T01:23:30.220Z,0.00
2019-05-10T01:24:30.251Z,0.00
2019-05-10T01:25:35.117Z,0.00
2019-05-10T01:26:30.310Z,0.00
2019-05-10T01:27:30.339Z,0.00
2019-05-10T01:28:30.369Z,0.00
2019-05-10T01:29:30.398Z,0.00
2019-05-10T01:30:30.429Z,0.00
2019-05-10T01:31:30.458Z,0.00
2019-05-10T01:32:30.491Z,0.00
2019-05-10T01:33:30.518Z,0.00
2019-05-10T01:34:30.547Z,0.00
2019-05-10T01:35:30.577Z,0.00
2019-05-10T01:36:30.609Z,0.00
2019-05-10T01:37:30.635Z,0.00
2019-05-10T01:38:30.669Z,0.00
2019-05-10T01:39:30.696Z,0.00
2019-05-10T01:40:30.727Z,0.00
2019-05-10T01:41:30.759Z,0.00
2019-05-10T01:42:30.785Z,0.00
2019-05-10T01:43:30.816Z,0.00
2019-05-10T01:44:30.845Z,0.00
2019-05-10T01:45:30.932Z,0.00
2019-05-10T01:46:30.904Z,0.00
2019-05-10T01:47:30.935Z,0.00
2019-05-10T01:48:30.986Z,0.00
2019-05-10T01:49:30.993Z,0.00
2019-05-10T01:50:31.033Z,0.00
2019-05-10T01:51:31.053Z,0.00
2019-05-10T01:52:31.083Z,0.00
2019-05-10T01:53:31.113Z,0.00
2019-05-10T01:54:31.142Z,0.00
2019-05-10T01:55:31.173Z,0.00
2019-05-10T01:56:31.353Z,0.00
2019-05-10T01:57:31.231Z,0.00
2019-05-10T01:58:31.262Z,0.00
2019-05-10T01:59:31.291Z,0.00
2019-05-10T02:00:31.393Z,0.00
2019-05-10T02:01:31.363Z,0.00
2019-05-10T02:02:31.381Z,0.00
2019-05-10T02:03:31.413Z,0.00
2019-05-10T02:04:31.439Z,0.00
2019-05-10T02:05:31.467Z,0.00
2019-05-10T02:06:31.498Z,0.00
2019-05-10T02:07:31.529Z,0.00
2019-05-10T02:08:31.558Z,0.00
2019-05-10T02:09:33.475Z,0.00
2019-05-10T02:10:31.618Z,0.00
2019-05-10T02:11:31.647Z,0.00
2019-05-10T02:12:31.676Z,0.00
2019-05-10T02:13:31.705Z,0.00
2019-05-10T02:14:31.741Z,0.00
2019-05-10T02:15:31.764Z,0.00
2019-05-10T02:16:31.795Z,0.00
2019-05-10T02:17:31.824Z,0.00
2019-05-10T02:18:31.851Z,0.00
2019-05-10T02:19:31.884Z,0.00
2019-05-10T02:20:31.913Z,0.00
2019-05-10T02:21:31.942Z,0.00
2019-05-10T02:22:31.972Z,0.00
2019-05-10T02:23:32.004Z,0.00
2019-05-10T02:24:32.030Z,0.00
2019-05-10T02:25:32.059Z,0.00
2019-05-10T02:26:32.090Z,0.00
2019-05-10T02:27:32.135Z,0.00
2019-05-10T02:28:32.154Z,0.00
2019-05-10T02:29:32.178Z,0.00
2019-05-10T02:30:32.209Z,0.00
2019-05-10T02:31:32.237Z,0.00
2019-05-10T02:32:32.267Z,0.00
2019-05-10T02:33:32.318Z,0.00
2019-05-10T02:34:32.327Z,0.00
2019-05-10T02:35:32.356Z,0.00
2019-05-10T02:36:32.386Z,0.00
2019-05-10T02:37:32.417Z,0.00
2019-05-10T02:38:32.444Z,0.00
2019-05-10T02:39:32.476Z,0.00
2019-05-10T02:40:32.507Z,0.00
2019-05-10T02:41:32.535Z,0.00
2019-05-10T02:42:32.567Z,0.00
2019-05-10T02:43:32.593Z,0.00
2019-05-10T02:44:32.622Z,0.00
2019-05-10T02:45:32.649Z,0.00
2019-05-10T02:46:32.680Z,0.00
2019-05-10T02:47:32.711Z,0.00
2019-05-10T02:48:32.744Z,0.00
2019-05-10T02:49:32.770Z,0.00
2019-05-10T02:50:32.799Z,0.00
2019-05-10T02:51:32.828Z,0.00
2019-05-10T02:52:32.856Z,0.00
2019-05-10T02:53:32.886Z,0.00
2019-05-10T02:54:32.916Z,0.00
2019-05-10T02:55:32.949Z,0.00
2019-05-10T02:56:32.978Z,0.00
2019-05-10T02:57:33.010Z,0.00
2019-05-10T02:58:33.032Z,0.00
2019-05-10T02:59:33.064Z,0.00
2019-05-10T03:00:33.094Z,0.00
2019-05-10T03:01:33.121Z,0.00
2019-05-10T03:02:33.167Z,0.00
2019-05-10T03:03:33.182Z,0.00
2019-05-10T03:04:33.211Z,0.00
2019-05-10T03:05:33.245Z,0.00
2019-05-10T03:06:33.268Z,0.00
2019-05-10T03:07:33.298Z,0.00
2019-05-10T03:08:33.330Z,0.00
2019-05-10T03:09:33.403Z,0.00
2019-05-10T03:10:33.388Z,0.00
2019-05-10T03:11:33.417Z,0.00
2019-05-10T03:12:33.445Z,0.00
2019-05-10T03:13:33.484Z,0.00
2019-05-10T03:14:33.507Z,0.00
2019-05-10T03:15:33.534Z,0.00
2019-05-10T03:16:33.564Z,0.00
2019-05-10T03:17:33.595Z,0.00
2019-05-10T03:18:33.622Z,0.00
2019-05-10T03:19:33.653Z,0.00
2019-05-10T03:20:33.685Z,0.00
2019-05-10T03:21:33.720Z,0.00
2019-05-10T03:22:33.741Z,0.00
2019-05-10T03:23:33.774Z,0.00
2019-05-10T03:24:33.802Z,0.00
2019-05-10T03:25:33.830Z,0.00
2019-05-10T03:26:49.750Z,0.00
2019-05-10T03:27:33.891Z,0.00
2019-05-10T03:28:33.919Z,0.00
2019-05-10T03:29:33.950Z,0.00
2019-05-10T03:30:33.995Z,0.00
2019-05-10T03:31:34.164Z,0.00
2019-05-10T03:32:34.038Z,4.00
2019-05-10T03:33:34.067Z,4.00
2019-05-10T03:34:34.097Z,4.00
2019-05-10T03:35:34.128Z,4.00
2019-05-10T03:36:34.174Z,4.00
2019-05-10T03:37:34.186Z,4.00
2019-05-10T03:38:34.227Z,8.00
2019-05-10T03:39:34.248Z,8.00
2019-05-10T03:40:34.274Z,8.00
2019-05-10T03:41:34.307Z,8.00
2019-05-10T03:42:34.334Z,8.00
2019-05-10T03:43:34.367Z,12.00
2019-05-10T03:44:34.394Z,12.00
2019-05-10T03:45:34.421Z,16.00
2019-05-10T03:46:34.458Z,20.00
2019-05-10T03:47:34.481Z,16.00
2019-05-10T03:48:34.513Z,20.00
2019-05-10T03:49:34.540Z,24.00
2019-05-10T03:50:34.572Z,28.00
2019-05-10T03:51:34.602Z,32.00
2019-05-10T03:52:34.630Z,36.00
2019-05-10T03:53:34.658Z,32.00
2019-05-10T03:54:34.704Z,36.00
2019-05-10T03:55:34.718Z,40.00
2019-05-10T03:56:34.750Z,36.00
2019-05-10T03:57:34.779Z,40.00
2019-05-10T03:58:34.809Z,40.00
2019-05-10T03:59:34.837Z,40.00
2019-05-10T04:00:34.877Z,44.00
2019-05-10T04:01:34.898Z,48.00
2019-05-10T04:02:34.928Z,56.00
2019-05-10T04:03:34.957Z,60.00
2019-05-10T04:04:34.987Z,64.00
2019-05-10T04:05:35.016Z,72.00
2019-05-10T04:06:35.045Z,72.00
2019-05-10T04:07:35.079Z,80.00
2019-05-10T04:08:35.107Z,80.00
2019-05-10T04:09:35.132Z,80.00
2019-05-10T04:10:35.182Z,76.00
2019-05-10T04:11:35.195Z,72.00
2019-05-10T04:12:35.226Z,72.00
2019-05-10T04:13:35.289Z,76.00
2019-05-10T04:14:35.305Z,76.00
2019-05-10T04:15:35.313Z,80.00
2019-05-10T04:16:35.412Z,84.00
2019-05-10T04:17:35.376Z,92.00
2019-05-10T04:18:35.405Z,96.00
2019-05-10T04:19:35.432Z,100.00
2019-05-10T04:20:35.461Z,104.00
2019-05-10T04:21:35.491Z,104.00
2019-05-10T04:22:35.524Z,104.00
2019-05-10T04:23:35.550Z,108.00
2019-05-10T04:24:36.685Z,108.00
2019-05-10T04:25:35.609Z,116.00
2019-05-10T04:26:35.643Z,128.00
2019-05-10T04:27:35.668Z,140.00
2019-05-10T04:28:35.707Z,152.00
2019-05-10T04:29:35.730Z,164.00
2019-05-10T04:30:35.760Z,168.00
2019-05-10T04:31:35.789Z,168.00
2019-05-10T04:32:35.818Z,176.00
2019-05-10T04:33:35.847Z,196.00
2019-05-10T04:34:35.876Z,216.00
2019-05-10T04:35:35.906Z,224.00
2019-05-10T04:36:35.936Z,228.00
2019-05-10T04:37:35.967Z,228.00
2019-05-10T04:38:35.996Z,220.00
2019-05-10T04:39:36.024Z,216.00
2019-05-10T04:40:36.054Z,224.00
2019-05-10T04:41:36.084Z,244.00
2019-05-10T04:42:36.115Z,260.00
2019-05-10T04:43:36.144Z,264.00
2019-05-10T04:44:36.174Z,260.00
2019-05-10T04:45:36.204Z,260.00
2019-05-10T04:46:36.231Z,268.00
2019-05-10T04:47:36.261Z,288.00
2019-05-10T04:48:36.292Z,328.00
2019-05-10T04:49:36.320Z,408.00
2019-05-10T04:50:36.351Z,512.00
2019-05-10T04:51:36.383Z,588.00
2019-05-10T04:52:36.410Z,648.00
2019-05-10T04:53:36.438Z,688.00
2019-05-10T04:54:36.468Z,700.00
2019-05-10T04:55:36.500Z,664.00
2019-05-10T04:56:36.529Z,640.00
2019-05-10T04:57:50.091Z,664.00
2019-05-10T04:58:36.587Z,740.00
2019-05-10T04:59:36.626Z,880.00
2019-05-10T05:00:36.749Z,1120.00
2019-05-10T05:01:36.685Z,1420.00
2019-05-10T05:02:36.708Z,1624.00
2019-05-10T05:03:36.736Z,1716.00
2019-05-10T05:04:36.765Z,1808.00
2019-05-10T05:05:36.797Z,1920.00
2019-05-10T05:06:36.825Z,1920.00
2019-05-10T05:07:36.855Z,1848.00
2019-05-10T05:08:36.909Z,1844.00
2019-05-10T05:09:36.915Z,1848.00
2019-05-10T05:10:36.945Z,1820.00
2019-05-10T05:11:36.974Z,1824.00
2019-05-10T05:12:37.007Z,1968.00
2019-05-10T05:13:37.033Z,2184.00
2019-05-10T05:14:37.063Z,2316.00
2019-05-10T05:15:37.094Z,2456.00
2019-05-10T05:16:37.125Z,2584.00
2019-05-10T05:17:37.164Z,2772.00
2019-05-10T05:18:37.185Z,2936.00
2019-05-10T05:19:40.729Z,2968.00
2019-05-10T05:20:37.243Z,2904.00
2019-05-10T05:21:37.300Z,2836.00
2019-05-10T05:22:37.302Z,2868.00
2019-05-10T05:23:37.334Z,2880.00
2019-05-10T05:24:37.363Z,2888.00
2019-05-10T05:25:40.237Z,3016.00
2019-05-10T05:26:37.422Z,3100.00
2019-05-10T05:27:37.454Z,3060.00
2019-05-10T05:28:37.483Z,2944.00
2019-05-10T05:29:37.513Z,2752.00
2019-05-10T05:30:38.797Z,2600.00
2019-05-10T05:31:37.573Z,2592.00
2019-05-10T05:32:38.676Z,2632.00
2019-05-10T05:33:37.633Z,2756.00
2019-05-10T05:34:37.664Z,2980.00
2019-05-10T05:35:37.696Z,3144.00
2019-05-10T05:36:37.724Z,3348.00
2019-05-10T05:37:37.752Z,3524.00
2019-05-10T05:38:40.351Z,3492.00
2019-05-10T05:39:37.813Z,3296.00
2019-05-10T05:40:37.920Z,3164.00
2019-05-10T05:41:47.643Z,3172.00
2019-05-10T05:42:37.904Z,3292.00
2019-05-10T05:43:45.700Z,3284.00
2019-05-10T05:44:37.965Z,3280.00
2019-05-10T05:45:37.997Z,3288.00
2019-05-10T05:46:38.025Z,3360.00
2019-05-10T05:47:42.248Z,3448.00
2019-05-10T05:48:40.550Z,3608.00
2019-05-10T05:49:38.116Z,3800.00
2019-05-10T05:50:38.147Z,3760.00
2019-05-10T05:51:38.177Z,3800.00
2019-05-10T05:52:38.208Z,3996.00
2019-05-10T05:53:42.447Z,4148.00
2019-05-10T05:54:38.268Z,4412.00
2019-05-10T05:55:38.299Z,4684.00
2019-05-10T05:56:38.331Z,4732.00
2019-05-10T05:57:38.358Z,4856.00
2019-05-10T05:58:44.455Z,4960.00
2019-05-10T05:59:38.420Z,5116.00
2019-05-10T06:00:44.884Z,5268.00
2019-05-10T06:01:38.502Z,5328.00
2019-05-10T06:02:43.935Z,5316.00
2019-05-10T06:03:39.079Z,5372.00
2019-05-10T06:04:41.011Z,5520.00
2019-05-10T06:05:38.606Z,5780.00
2019-05-10T06:06:38.634Z,5744.00
2019-05-10T06:07:39.538Z,5820.00
2019-05-10T06:08:38.697Z,6156.00
2019-05-10T06:09:39.397Z,6392.00
2019-05-10T06:10:38.786Z,6616.00
2019-05-10T06:11:38.792Z,6844.00
2019-05-10T06:12:38.820Z,6976.00
2019-05-10T06:13:38.874Z,6984.00
2019-05-10T06:14:43.074Z,7024.00
2019-05-10T06:15:38.913Z,6936.00
2019-05-10T06:16:38.945Z,6704.00
2019-05-10T06:17:38.982Z,6352.00
2019-05-10T06:18:41.581Z,6028.00
2019-05-10T06:19:39.037Z,5660.00
2019-05-10T06:20:44.608Z,5432.00
2019-05-10T06:21:39.099Z,5372.00
2019-05-10T06:22:43.816Z,5356.00
2019-05-10T06:23:39.164Z,5360.00
2019-05-10T06:24:39.193Z,5368.00
2019-05-10T06:25:42.431Z,5440.00
2019-05-10T06:26:39.258Z,5684.00
2019-05-10T06:27:41.049Z,6148.00
2019-05-10T06:29:42.947Z,7292.00
2019-05-10T06:30:39.381Z,7692.00
2019-05-10T06:31:39.412Z,7928.00
2019-05-10T06:32:39.444Z,7792.00
2019-05-10T06:33:44.437Z,7960.00
2019-05-10T06:34:40.302Z,7968.00
2019-05-10T06:35:39.538Z,7992.00
2019-05-10T06:36:39.642Z,8136.00
2019-05-10T06:37:39.600Z,8548.00
2019-05-10T06:38:39.634Z,8848.00
2019-05-10T06:39:39.664Z,9880.00
2019-05-10T06:40:46.769Z,9996.00
2019-05-10T06:41:39.731Z,8844.00
2019-05-10T06:42:39.758Z,8804.00
2019-05-10T06:43:39.790Z,9156.00
2019-05-10T06:44:39.823Z,9688.00
2019-05-10T06:45:39.855Z,10440.00
2019-05-10T06:46:39.893Z,10900.00
2019-05-10T06:47:41.908Z,11132.00
2019-05-10T06:48:39.950Z,11676.00
2019-05-10T06:49:41.023Z,12588.00
2019-05-10T06:50:40.029Z,13464.00
2019-05-10T06:51:42.655Z,13260.00
2019-05-10T06:52:40.080Z,13204.00
2019-05-10T06:53:41.619Z,13100.00
2019-05-10T06:54:40.144Z,12976.00
2019-05-10T06:55:40.177Z,12500.00
2019-05-10T06:56:40.241Z,11516.00
2019-05-10T06:57:40.240Z,10116.00
2019-05-10T06:58:40.272Z,8808.00
2019-05-10T06:59:40.305Z,8196.00
2019-05-10T07:00:45.044Z,8024.00
2019-05-10T07:01:45.935Z,7828.00
2019-05-10T07:02:40.403Z,7620.00
2019-05-10T07:03:40.434Z,7496.00
2019-05-10T07:04:41.308Z,7536.00
2019-05-10T07:05:40.504Z,7896.00
2019-05-10T07:06:40.686Z,8260.00
2019-05-10T07:07:44.957Z,8676.00
2019-05-10T07:08:44.234Z,9028.00
2019-05-10T07:10:01.049Z,8752.00
2019-05-10T07:10:40.666Z,8356.00
2019-05-10T07:11:40.698Z,8348.00
2019-05-10T07:12:40.802Z,8948.00
2019-05-10T07:13:47.155Z,9324.00
2019-05-10T07:14:45.817Z,9296.00
2019-05-10T07:15:42.732Z,9540.00
2019-05-10T07:16:40.868Z,10068.00
2019-05-10T07:17:45.639Z,10936.00
2019-05-10T07:18:40.926Z,11944.00
2019-05-10T07:19:50.164Z,12740.00
2019-05-10T07:20:43.170Z,13384.00
2019-05-10T07:21:44.811Z,13684.00
2019-05-10T07:22:41.058Z,13556.00
2019-05-10T07:23:44.941Z,12936.00
2019-05-10T07:25:23.672Z,12168.00
2019-05-10T07:26:26.606Z,12092.00
2019-05-10T07:27:23.738Z,12432.00
2019-05-10T07:28:23.771Z,13080.00
2019-05-10T07:29:29.959Z,13224.00
2019-05-10T07:30:23.837Z,12836.00
2019-05-10T07:31:24.109Z,13492.00
2019-05-10T07:32:24.676Z,13648.00
2019-05-10T07:33:23.936Z,14012.00
2019-05-10T07:34:23.970Z,13260.00
2019-05-10T07:35:24.002Z,13776.00
2019-05-10T07:36:27.487Z,14512.00
2019-05-10T07:37:24.073Z,14652.00
2019-05-10T07:38:30.790Z,14992.00
2019-05-10T07:39:24.136Z,13068.00
2019-05-10T07:40:24.168Z,12380.00
2019-05-10T07:41:26.401Z,12332.00
2019-05-10T07:42:24.235Z,12308.00
2019-05-10T07:43:28.633Z,12148.00
2019-05-10T07:44:24.304Z,12524.00
2019-05-10T07:45:25.638Z,12600.00
2019-05-10T07:46:24.458Z,12180.00
2019-05-10T07:49:50.286Z,12292.00
2019-05-10T07:50:51.932Z,12668.00
2019-05-10T07:51:50.355Z,12248.00
2019-05-10T07:52:50.388Z,12140.00
2019-05-10T07:53:50.425Z,12064.00
2019-05-10T07:54:50.454Z,12536.00
2019-05-10T07:55:50.490Z,14084.00
2019-05-10T07:56:50.524Z,16176.00
2019-05-10T07:57:50.555Z,16472.00
2019-05-10T07:58:50.593Z,15252.00
2019-05-10T07:59:51.409Z,15544.00
2019-05-10T08:00:50.655Z,16012.00
2019-05-10T08:01:50.690Z,15512.00
2019-05-10T08:02:57.769Z,14320.00
2019-05-10T08:03:52.531Z,13252.00
2019-05-10T08:06:52.119Z,11252.00
2019-05-10T08:08:55.301Z,11472.00
2019-05-10T08:09:50.969Z,11348.00
2019-05-10T08:10:50.996Z,10484.00
2019-05-10T08:11:54.080Z,9556.00
2019-05-10T08:12:51.060Z,9152.00
2019-05-10T08:13:51.095Z,8724.00
2019-05-10T08:14:53.607Z,8168.00
2019-05-10T08:15:51.163Z,7288.00
2019-05-10T08:16:58.468Z,6456.00
2019-05-10T08:17:51.234Z,5948.00
2019-05-10T08:18:55.776Z,5644.00
2019-05-10T08:19:51.299Z,5608.00
2019-05-10T08:20:57.721Z,5844.00
2019-05-10T08:21:55.298Z,5912.00
2019-05-10T08:22:52.543Z,5744.00
2019-05-10T08:23:51.940Z,5556.00
2019-05-10T08:24:55.183Z,5684.00
2019-05-10T08:25:53.450Z,6136.00
2019-05-10T08:26:55.586Z,7100.00
2019-05-10T08:27:55.291Z,7916.00
2019-05-10T08:28:52.547Z,8396.00
2019-05-10T08:30:15.821Z,9012.00
2019-05-10T08:30:58.143Z,9928.00
2019-05-10T08:31:55.242Z,10096.00
2019-05-10T08:32:52.584Z,9936.00
2019-05-10T08:33:58.364Z,9332.00
2019-05-10T08:34:55.586Z,9044.00
2019-05-10T08:36:00.311Z,9412.00
2019-05-10T08:36:52.042Z,10448.00
2019-05-10T08:37:53.019Z,11500.00
2019-05-10T08:39:05.118Z,13032.00
2019-05-10T08:39:56.104Z,14820.00
2019-05-10T08:40:52.793Z,16664.00
2019-05-10T08:42:01.372Z,18176.00
2019-05-10T08:43:03.117Z,19776.00
2019-05-10T08:43:52.620Z,19328.00
2019-05-10T08:45:03.370Z,19808.00
2019-05-10T08:45:52.537Z,22944.00
2019-05-10T08:46:52.598Z,21600.00
2019-05-10T08:48:00.499Z,19616.00
2019-05-10T08:48:53.869Z,19840.00
2019-05-10T08:50:09.193Z,20768.00
2019-05-10T08:50:57.098Z,20288.00
2019-05-10T08:51:52.419Z,20032.00
2019-05-10T08:52:56.755Z,20160.00
2019-05-10T08:53:58.004Z,20800.00
2019-05-10T08:54:54.958Z,20736.00
2019-05-10T08:55:52.707Z,19872.00
2019-05-10T08:58:55.600Z,19456.00
2019-05-10T08:59:36.311Z,18304.00
2019-05-10T09:00:49.310Z,16640.00
2019-05-10T09:01:44.259Z,14460.00
2019-05-10T09:02:36.415Z,12556.00
2019-05-10T09:03:36.450Z,11156.00
2019-05-10T09:04:42.789Z,10208.00
2019-05-10T09:05:39.751Z,9784.00
2019-05-10T09:06:36.559Z,9848.00
2019-05-10T09:07:38.963Z,10620.00
2019-05-10T09:08:36.626Z,11284.00
2019-05-10T09:09:45.422Z,12052.00
2019-05-10T09:10:36.695Z,12848.00
2019-05-10T09:11:36.733Z,13272.00
2019-05-10T09:12:44.245Z,14596.00
2019-05-10T09:13:40.836Z,17120.00
2019-05-10T09:14:36.850Z,18336.00
2019-05-10T09:15:43.161Z,18304.00
2019-05-10T09:16:43.366Z,17920.00
2019-05-10T09:17:36.940Z,17408.00
2019-05-10T09:18:38.022Z,15768.00
2019-05-10T09:19:41.018Z,13884.00
2019-05-10T09:20:37.046Z,12480.00
2019-05-10T09:21:41.017Z,12072.00
2019-05-10T09:22:38.562Z,11920.00
2019-05-10T09:23:37.152Z,11564.00
2019-05-10T09:24:43.163Z,11260.00
2019-05-10T09:25:37.222Z,11092.00
2019-05-10T09:26:37.260Z,11312.00
2019-05-10T09:27:37.291Z,10940.00
2019-05-10T09:28:37.326Z,10904.00
2019-05-10T09:29:37.651Z,11908.00
2019-05-10T09:30:52.418Z,13864.00
2019-05-10T09:31:39.349Z,15224.00
2019-05-10T09:32:39.887Z,15148.00
2019-05-10T09:33:43.297Z,13576.00
2019-05-10T09:34:37.550Z,10948.00
2019-05-10T09:35:39.061Z,8868.00
2019-05-10T09:36:37.607Z,7788.00
2019-05-10T09:37:37.641Z,6852.00
2019-05-10T09:38:39.692Z,6020.00
2019-05-10T09:39:37.711Z,4980.00
2019-05-10T09:40:42.489Z,4180.00
2019-05-10T09:41:38.474Z,3556.00
2019-05-10T09:42:40.804Z,3304.00
2019-05-10T09:43:42.437Z,3572.00
2019-05-10T09:44:37.885Z,3704.00
2019-05-10T09:45:37.918Z,3352.00
2019-05-10T09:46:37.952Z,2984.00
2019-05-10T09:47:37.992Z,2828.00
2019-05-10T09:48:38.021Z,2748.00
2019-05-10T09:49:38.056Z,2808.00
2019-05-10T09:50:42.098Z,3056.00
2019-05-10T09:51:38.127Z,3512.00
2019-05-10T09:52:38.158Z,4344.00
2019-05-10T09:53:38.524Z,5152.00
2019-05-10T09:54:38.257Z,5276.00
2019-05-10T09:55:38.258Z,5164.00
2019-05-10T09:56:44.161Z,5132.00
2019-05-10T09:57:38.327Z,5216.00
2019-05-10T09:58:38.794Z,5300.00
2019-05-10T09:59:38.394Z,5376.00
2019-05-10T10:00:38.451Z,6104.00
2019-05-10T10:01:38.458Z,6936.00
2019-05-10T10:02:40.578Z,7252.00
2019-05-10T10:03:43.044Z,7800.00
2019-05-10T10:04:38.558Z,7972.00
2019-05-10T10:05:40.294Z,8636.00
2019-05-10T10:06:41.893Z,10220.00
2019-05-10T10:07:38.678Z,11180.00
2019-05-10T10:08:43.501Z,11588.00
2019-05-10T10:09:44.523Z,12740.00
2019-05-10T10:11:39.299Z,13704.00
2019-05-10T10:18:40.340Z,25664.00
2019-05-10T10:20:43.434Z,26656.00
2019-05-10T10:21:39.153Z,27296.00
2019-05-10T10:22:43.320Z,17920.00
2019-05-10T10:23:39.194Z,15396.00
2019-05-10T10:24:41.101Z,14736.00
2019-05-10T10:25:40.784Z,14744.00
2019-05-10T10:26:39.322Z,15260.00
2019-05-10T10:27:39.704Z,15716.00
2019-05-10T10:29:39.421Z,15664.00
2019-05-10T10:31:51.404Z,13956.00
2019-05-10T10:32:39.505Z,13136.00
2019-05-10T10:33:42.754Z,12568.00
2019-05-10T10:34:43.013Z,12296.00
2019-05-10T10:35:39.632Z,12520.00
2019-05-10T10:36:43.808Z,13292.00
2019-05-10T10:37:40.006Z,13764.00
2019-05-10T10:38:45.200Z,13360.00
2019-05-10T10:39:39.748Z,12680.00
2019-05-10T10:40:44.667Z,12152.00
2019-05-10T10:41:39.820Z,12256.00
2019-05-10T10:42:39.850Z,12252.00
2019-05-10T10:43:39.886Z,12448.00
2019-05-10T10:44:39.920Z,12480.00
2019-05-10T10:45:39.955Z,12284.00
2019-05-10T10:46:39.990Z,11580.00
2019-05-10T10:47:40.036Z,10392.00
2019-05-10T10:48:43.613Z,9672.00
2019-05-10T10:49:40.092Z,9248.00
2019-05-10T10:50:44.207Z,9040.00
2019-05-10T10:51:40.172Z,9132.00
2019-05-10T10:52:40.196Z,9572.00
2019-05-10T10:53:40.236Z,10148.00
2019-05-10T10:54:40.263Z,10772.00
2019-05-10T10:55:40.482Z,11560.00
2019-05-10T10:56:40.334Z,13104.00
2019-05-10T10:57:40.366Z,14264.00
2019-05-10T10:58:40.403Z,15736.00
2019-05-10T10:59:40.435Z,17696.00
2019-05-10T11:00:40.470Z,19840.00
2019-05-10T11:01:49.974Z,23296.00
2019-05-10T11:02:41.707Z,32704.00
2019-05-10T11:03:40.570Z,32192.00
2019-05-10T11:04:46.774Z,36416.00
2019-05-10T11:06:40.674Z,63680.00
2019-05-10T11:07:44.428Z,159104.00
2019-05-10T11:08:41.262Z,30272.00
2019-05-10T11:09:41.142Z,28704.00
2019-05-10T11:10:43.008Z,28896.00
2019-05-10T11:11:44.416Z,27200.00
2019-05-10T11:12:41.396Z,24608.00
2019-05-10T11:13:45.402Z,26176.00
2019-05-10T11:14:45.276Z,37184.00
2019-05-10T11:15:41.992Z,27456.00
2019-05-10T11:16:41.355Z,43616.00
2019-05-10T11:17:41.074Z,29600.00
2019-05-10T11:18:41.840Z,28960.00
2019-05-10T11:19:41.778Z,31264.00
2019-05-10T11:20:49.038Z,29888.00
2019-05-10T11:21:41.628Z,55072.00
2019-05-10T11:22:49.008Z,26656.00
2019-05-10T11:23:42.018Z,35456.00
2019-05-10T11:24:41.359Z,23968.00
2019-05-10T11:25:42.656Z,30752.00
2019-05-10T11:26:44.660Z,22848.00
2019-05-10T11:27:41.771Z,24800.00
2019-05-10T11:28:44.153Z,29984.00
2019-05-10T11:29:41.876Z,130464.00
2019-05-10T11:30:41.563Z,73856.00
2019-05-10T11:31:41.613Z,131776.00
2019-05-10T11:32:42.247Z,141472.00
2019-05-10T11:33:41.873Z,130496.00
2019-05-10T11:34:41.719Z,114848.00
2019-05-10T11:35:41.855Z,121696.00
2019-05-10T11:36:46.127Z,119424.00
2019-05-10T11:38:42.213Z,126368.00
2019-05-10T11:39:46.875Z,123488.00
2019-05-10T11:40:42.080Z,124160.00
2019-05-10T11:41:45.033Z,125952.00
2019-05-10T11:42:43.825Z,124896.00
2019-05-10T11:43:42.149Z,126752.00
2019-05-10T11:44:49.970Z,130144.00
2019-05-10T11:46:44.791Z,126016.00
2019-05-10T11:47:48.333Z,41024.00
2019-05-10T11:48:44.884Z,70240.00
2019-05-10T11:49:44.926Z,134752.00
2019-05-10T11:50:44.971Z,136192.00
2019-05-10T11:51:48.009Z,135840.00
2019-05-10T11:52:45.060Z,132480.00
2019-05-10T11:53:48.830Z,129600.00
2019-05-10T11:54:45.153Z,133568.00
2019-05-10T11:55:45.199Z,135872.00
2019-05-10T11:56:45.245Z,131232.00
2019-05-10T11:58:00.797Z,120256.00
2019-05-10T11:58:52.499Z,129088.00
2019-05-10T11:59:45.389Z,133536.00
2019-05-10T12:00:45.436Z,131872.00
2019-05-10T12:01:54.821Z,129088.00
2019-05-10T12:03:45.580Z,136992.00
2019-05-10T12:04:45.629Z,136960.00
2019-05-10T12:05:45.682Z,72672.00
2019-05-10T12:06:50.084Z,146752.00
2019-05-10T12:07:46.201Z,36928.00
2019-05-10T12:08:45.824Z,96000.00
2019-05-10T12:09:55.731Z,129856.00
2019-05-10T12:11:51.648Z,121600.00
2019-05-10T12:13:01.889Z,125856.00
2019-05-10T12:13:46.068Z,131232.00
2019-05-10T12:14:46.663Z,131424.00
2019-05-10T12:15:46.164Z,128672.00
2019-05-10T12:16:48.835Z,138080.00
2019-05-10T12:17:49.790Z,127392.00
2019-05-10T12:19:01.215Z,144096.00
2019-05-10T12:20:54.011Z,144192.00
2019-05-10T12:21:46.619Z,32672.00
2019-05-10T12:22:47.571Z,46880.00
2019-05-10T12:23:50.915Z,36416.00
2019-05-10T12:25:00.526Z,36384.00
2019-05-10T12:26:06.157Z,134720.00
2019-05-10T12:26:08.470Z,107648.00
2019-05-10T12:26:19.490Z,43968.00
2019-05-10T12:27:49.200Z,83584.00
2019-05-10T12:28:51.008Z,127424.00
2019-05-10T12:29:55.517Z,87680.00
2019-05-10T12:30:46.898Z,47712.00
2019-05-10T12:31:47.345Z,50528.00
2019-05-10T12:32:57.179Z,41632.00
2019-05-10T12:33:47.042Z,46400.00
2019-05-10T12:34:51.880Z,42592.00
2019-05-10T12:35:47.586Z,108704.00
2019-05-10T12:36:47.179Z,71616.00
2019-05-10T12:37:51.456Z,33312.00
2019-05-10T12:38:47.273Z,21760.00
2019-05-10T12:39:47.319Z,17472.00
2019-05-10T12:40:47.367Z,15500.00
2019-05-10T12:41:49.850Z,14784.00
2019-05-10T12:42:47.475Z,13852.00
2019-05-10T12:43:48.592Z,14000.00
2019-05-10T12:44:48.254Z,14632.00
2019-05-10T12:45:47.591Z,15268.00
2019-05-10T12:46:47.635Z,15776.00
2019-05-10T12:48:51.707Z,15540.00
2019-05-10T12:49:47.764Z,20128.00
2019-05-10T12:50:48.032Z,19904.00
2019-05-10T12:51:47.855Z,19552.00